Time;durP1;ratioP1;P1;durP2;ratioP2;P2;SDS_P1;SDS_P2;PMS_P1;PMS_P2;Temp;Humidity;BMP_temperature;BMP_pressure;BME280_temperature;BME280_humidity;BME280_pressure;Samples;Min_cycle;Max_cycle;Signal;HPM_P1;HPM_P2
2022/03/11 00:02:01;;;;;;;;;21.67;17.00;;;;;26.58;22.17;100838.72;5069024;27;46981;-74
2022/03/11 00:04:26;;;;;;;;;25.33;22.00;;;;;26.48;22.03;100835.56;5079966;27;45942;-74
2022/03/11 00:06:51;;;;;;;;;24.67;23.67;;;;;26.47;22.54;100834.69;5078248;27;45539;-73
2022/03/11 00:09:17;;;;;;;;;20.00;16.00;;;;;26.34;22.64;100803.56;5075860;27;45461;-74
2022/03/11 00:11:43;;;;;;;;;20.00;17.67;;;;;26.52;22.16;100816.28;5078556;27;45491;-74
2022/03/11 00:14:08;;;;;;;;;19.00;18.67;;;;;26.38;22.16;100813.34;5082655;27;45926;-75
2022/03/11 00:16:34;;;;;;;;;17.33;17.33;;;;;26.42;21.96;100804.09;5085746;27;45413;-74
2022/03/11 00:18:59;;;;;;;;;20.33;19.00;;;;;26.51;22.19;100814.53;5085779;27;45399;-75
2022/03/11 00:21:25;;;;;;;;;18.67;18.67;;;;;26.41;22.04;100806.88;5096508;27;46218;-75
2022/03/11 00:23:50;;;;;;;;;16.00;16.00;;;;;26.36;22.28;100804.38;5096904;27;46551;-75
2022/03/11 00:26:16;;;;;;;;;17.00;16.00;;;;;26.31;22.53;100796.41;5098257;27;45474;-75
2022/03/11 00:28:41;;;;;;;;;14.00;13.00;;;;;26.39;22.73;100784.31;5098514;27;45389;-74
2022/03/11 00:31:07;;;;;;;;;20.00;20.00;;;;;26.50;22.25;100791.00;5098071;27;45577;-75
2022/03/11 00:33:32;;;;;;;;;17.33;17.33;;;;;26.49;22.01;100777.47;5098120;27;45238;-74
2022/03/11 00:35:58;;;;;;;;;16.67;16.67;;;;;26.51;22.25;100800.03;5098315;27;45394;-75
2022/03/11 00:38:23;;;;;;;;;21.67;18.33;;;;;26.48;22.36;100797.47;5097053;27;45344;-75
2022/03/11 00:40:51;;;;;;;;;16.67;16.67;;;;;26.43;22.09;100781.38;5096715;27;45452;-75
2022/03/11 00:43:17;;;;;;;;;18.67;16.33;;;;;26.53;22.28;100784.53;5097081;27;45405;-75
2022/03/11 00:45:43;;;;;;;;;23.33;15.67;;;;;26.48;22.12;100781.16;5097171;27;45730;-75
2022/03/11 00:48:08;;;;;;;;;18.67;15.33;;;;;26.53;22.57;100779.97;5096833;27;45726;-75
2022/03/11 00:50:34;;;;;;;;;17.67;16.33;;;;;26.54;22.21;100768.13;5096973;27;45567;-75
2022/03/11 00:52:59;;;;;;;;;19.00;15.67;;;;;26.54;22.11;100775.44;5097178;27;45512;-74
2022/03/11 00:55:26;;;;;;;;;18.33;17.00;;;;;26.46;22.06;100783.06;5098620;27;45520;-75
2022/03/11 00:57:52;;;;;;;;;17.33;17.33;;;;;26.39;22.03;100759.84;5097930;27;45370;-74
2022/03/11 01:00:17;;;;;;;;;20.33;18.67;;;;;26.40;22.50;100767.00;5079561;27;48215;-75
2022/03/11 01:02:43;;;;;;;;;20.00;17.00;;;;;26.48;22.38;100781.16;5098064;27;45426;-75
2022/03/11 01:05:09;;;;;;;;;22.67;18.00;;;;;26.45;22.35;100771.28;5097927;27;45491;-75
2022/03/11 01:07:35;;;;;;;;;20.67;17.00;;;;;26.36;22.31;100753.56;5079457;27;45434;-75
2022/03/11 01:10:00;;;;;;;;;17.67;14.67;;;;;26.50;22.30;100771.97;5097754;27;46276;-75
2022/03/11 01:12:26;;;;;;;;;17.00;16.33;;;;;26.50;22.02;100769.25;5096440;27;45517;-75
2022/03/11 01:14:52;;;;;;;;;20.00;17.33;;;;;26.36;22.02;100744.53;5097873;27;45374;-75
2022/03/11 01:17:17;;;;;;;;;17.67;17.67;;;;;26.34;22.40;100747.34;5078262;27;45793;-74
2022/03/11 01:19:42;;;;;;;;;19.00;19.00;;;;;26.35;22.28;100759.09;5077312;28;46410;-75
2022/03/11 01:22:08;;;;;;;;;24.33;20.00;;;;;26.36;22.35;100761.72;5079838;27;45328;-75
2022/03/11 01:24:33;;;;;;;;;20.00;20.00;;;;;26.18;22.28;100735.41;5079339;27;45421;-75
2022/03/11 01:26:59;;;;;;;;;24.67;21.67;;;;;26.30;22.52;100731.22;5091953;27;45383;-75
2022/03/11 01:29:25;;;;;;;;;22.00;20.33;;;;;26.37;22.51;100740.88;5077224;28;45431;-74
2022/03/11 01:31:51;;;;;;;;;20.33;20.00;;;;;26.41;22.82;100747.91;5077120;28;45462;-75
2022/03/11 01:34:16;;;;;;;;;18.00;18.00;;;;;26.36;22.66;100739.97;5077316;28;45382;-74
2022/03/11 01:36:42;;;;;;;;;20.33;20.00;;;;;26.38;22.46;100736.31;5075483;28;45405;-74
2022/03/11 01:39:07;;;;;;;;;20.33;18.33;;;;;26.45;22.67;100745.94;5076878;28;45403;-75
2022/03/11 01:41:33;;;;;;;;;22.67;20.67;;;;;26.34;22.97;100724.66;5075630;28;45424;-74
2022/03/11 01:44:06;;;;;;;;;20.67;19.33;;;;;26.43;22.38;100728.81;5076955;28;45237;-75
2022/03/11 01:46:32;;;;;;;;;21.00;18.33;;;;;26.36;22.60;100728.22;5077049;28;45422;-75
2022/03/11 01:48:59;;;;;;;;;23.00;22.33;;;;;26.37;23.07;100719.13;5058196;28;47026;-74
2022/03/11 01:51:27;;;;;;;;;20.67;20.00;;;;;26.52;22.78;100736.53;5076570;28;45525;-75
2022/03/11 01:53:53;;;;;;;;;20.00;18.67;;;;;26.49;22.57;100710.34;5076765;28;45499;-74
2022/03/11 01:56:20;;;;;;;;;21.00;21.00;;;;;26.64;22.53;100727.78;5075563;28;45620;-74
2022/03/11 01:58:51;;;;;;;;;23.33;21.00;;;;;26.60;22.57;100714.41;5076264;28;46262;-74
2022/03/11 02:01:17;;;;;;;;;22.00;20.67;;;;;26.56;22.91;100710.06;5076424;28;45386;-75
2022/03/11 02:03:42;;;;;;;;;22.33;22.33;;;;;26.42;22.38;100705.28;5076926;28;45406;-77
2022/03/11 02:06:08;;;;;;;;;27.33;23.33;;;;;26.43;22.70;100691.59;5074823;28;45394;-74
2022/03/11 02:08:35;;;;;;;;;24.33;23.33;;;;;26.53;22.51;100705.63;5076553;28;46310;-75
2022/03/11 02:11:01;;;;;;;;;22.00;21.67;;;;;26.49;22.78;100712.19;5075882;27;45515;-76
2022/03/11 02:13:26;;;;;;;;;24.33;23.67;;;;;26.43;22.68;100709.78;5074821;28;45404;-75
2022/03/11 02:15:52;;;;;;;;;20.00;17.67;;;;;26.42;22.94;100708.88;5089032;27;45381;-76
2022/03/11 02:18:17;;;;;;;;;27.33;26.33;;;;;26.25;23.10;100684.34;5096709;27;45542;-76
2022/03/11 02:20:46;;;;;;;;;19.33;18.00;;;;;26.20;22.90;100687.25;5096618;27;45446;-75
2022/03/11 02:23:13;;;;;;;;;21.33;21.00;;;;;26.32;23.04;100710.28;5096605;27;45346;-75
2022/03/11 02:25:40;;;;;;;;;20.00;19.33;;;;;26.32;22.83;100697.56;5097011;27;45501;-75
2022/03/11 02:28:05;;;;;;;;;22.33;19.67;;;;;26.27;23.36;100709.59;5077838;27;48455;-76
2022/03/11 02:30:30;;;;;;;;;20.00;18.00;;;;;26.23;23.34;100700.72;5096414;27;45439;-75
2022/03/11 02:32:56;;;;;;;;;20.33;19.67;;;;;26.06;23.22;100687.03;5096648;27;45519;-76
2022/03/11 02:35:21;;;;;;;;;21.33;19.33;;;;;26.19;23.35;100707.25;5096120;27;45646;-75
2022/03/11 02:37:47;;;;;;;;;18.67;18.67;;;;;26.22;23.23;100690.78;5096651;27;45927;-75
2022/03/11 02:40:12;;;;;;;;;26.33;22.00;;;;;26.15;23.63;100700.19;5096310;27;45427;-75
2022/03/11 02:42:37;;;;;;;;;21.67;20.00;;;;;26.08;23.45;100674.25;5096604;27;45382;-75
2022/03/11 02:45:05;;;;;;;;;21.00;18.67;;;;;26.13;23.63;100686.69;5096653;27;45504;-75
2022/03/11 02:47:30;;;;;;;;;14.33;14.33;;;;;26.13;23.45;100694.84;5096270;27;45435;-75
2022/03/11 02:49:56;;;;;;;;;20.33;16.33;;;;;26.11;23.42;100674.09;5095844;27;45496;-75
2022/03/11 02:52:21;;;;;;;;;21.33;17.33;;;;;26.12;23.34;100670.44;5096493;27;45386;-75
2022/03/11 02:54:48;;;;;;;;;21.67;19.33;;;;;26.11;23.44;100684.97;5079854;27;45442;-75
2022/03/11 02:57:17;;;;;;;;;20.00;16.67;;;;;25.93;23.43;100664.94;5075727;28;46295;-75
2022/03/11 02:59:46;;;;;;;;;22.33;17.67;;;;;26.10;23.51;100661.47;5075670;28;45427;-75
2022/03/11 03:02:12;;;;;;;;;21.00;17.00;;;;;25.98;23.72;100652.03;5074374;28;45401;-75
2022/03/11 03:04:38;;;;;;;;;23.00;20.00;;;;;25.96;23.89;100670.22;5075390;28;45491;-75
2022/03/11 03:07:04;;;;;;;;;20.67;20.67;;;;;25.95;23.60;100669.34;5075609;28;45506;-75
2022/03/11 03:09:30;;;;;;;;;21.00;16.67;;;;;25.96;23.99;100679.28;5075612;28;45426;-75
2022/03/11 03:11:56;;;;;;;;;18.67;17.67;;;;;26.01;23.77;100649.19;5057454;28;45398;-75
2022/03/11 03:14:21;;;;;;;;;19.67;17.67;;;;;25.96;23.56;100638.50;5075613;28;45687;-76
2022/03/11 03:16:46;;;;;;;;;25.33;20.33;;;;;25.88;23.62;100645.22;5075391;28;45397;-75
2022/03/11 03:19:12;;;;;;;;;21.67;21.00;;;;;25.90;23.92;100659.66;5074869;28;45625;-76
2022/03/11 03:21:37;;;;;;;;;20.67;19.00;;;;;25.87;23.81;100665.25;5075724;28;45478;-75
2022/03/11 03:24:03;;;;;;;;;14.67;14.67;;;;;25.89;24.08;100645.16;5077885;28;45341;-75
2022/03/11 03:26:28;;;;;;;;;19.67;17.00;;;;;25.65;24.31;100623.63;5060944;28;46028;-75
2022/03/11 03:28:53;;;;;;;;;20.00;15.33;;;;;25.79;23.72;100639.28;5061105;28;45380;-75
2022/03/11 03:31:21;;;;;;;;;20.33;18.67;;;;;25.75;24.00;100612.31;5078975;28;45652;-75
2022/03/11 03:33:47;;;;;;;;;14.33;14.33;;;;;25.62;23.81;100580.28;5078900;28;45420;-75
2022/03/11 03:36:13;;;;;;;;;13.00;13.00;;;;;25.68;24.13;100603.56;5078726;28;45617;-75
2022/03/11 03:38:38;;;;;;;;;17.00;17.00;;;;;25.82;23.53;100613.78;5078980;28;45474;-75
2022/03/11 03:41:04;;;;;;;;;15.67;13.00;;;;;25.63;24.22;100601.06;5060675;28;45441;-75
2022/03/11 03:43:29;;;;;;;;;16.67;13.33;;;;;25.64;23.82;100608.28;5060755;28;45878;-75
2022/03/11 03:45:54;;;;;;;;;17.00;16.67;;;;;25.77;23.96;100621.31;5079040;27;47190;-75
2022/03/11 03:48:20;;;;;;;;;20.00;15.00;;;;;25.68;23.71;100612.63;5095942;27;45494;-75
2022/03/11 03:50:45;;;;;;;;;18.67;18.67;;;;;25.80;23.89;100602.13;5097805;27;45446;-75
2022/03/11 03:53:11;;;;;;;;;18.67;16.33;;;;;25.81;24.04;100609.34;5115026;27;45408;-75
2022/03/11 03:55:36;;;;;;;;;22.00;18.67;;;;;25.82;24.16;100594.78;5099140;27;46706;-76
2022/03/11 03:58:02;;;;;;;;;20.00;18.00;;;;;25.82;23.94;100606.53;5098684;27;45475;-74
2022/03/11 04:00:27;;;;;;;;;17.00;14.67;;;;;25.88;24.08;100615.34;5071732;27;45464;-75
2022/03/11 04:02:52;;;;;;;;;19.33;16.33;;;;;25.65;24.28;100585.59;5094054;27;45414;-75
2022/03/11 04:05:18;;;;;;;;;17.00;15.67;;;;;25.51;24.41;100601.63;5114439;27;45617;-75
2022/03/11 04:07:45;;;;;;;;;15.00;14.33;;;;;25.58;24.15;100616.69;5110026;27;45481;-75
2022/03/11 04:10:12;;;;;;;;;15.33;14.33;;;;;25.48;24.53;100610.84;5119421;27;45421;-75
2022/03/11 04:12:38;;;;;;;;;14.67;13.33;;;;;25.54;24.28;100611.47;5087441;27;45269;-75
2022/03/11 04:15:04;;;;;;;;;18.33;16.67;;;;;25.45;24.78;100610.06;5097791;27;45495;-75
2022/03/11 04:17:30;;;;;;;;;14.33;13.33;;;;;25.49;24.50;100615.28;5089827;27;45815;-75
2022/03/11 04:19:55;;;;;;;;;16.33;16.33;;;;;25.54;24.16;100601.53;5096550;27;45387;-75
2022/03/11 04:22:21;;;;;;;;;12.67;12.67;;;;;25.32;24.40;100560.88;5096375;27;45406;-75
2022/03/11 04:24:46;;;;;;;;;15.33;15.33;;;;;25.36;24.44;100586.03;5096025;27;45428;-75
2022/03/11 04:27:12;;;;;;;;;14.67;14.67;;;;;25.42;24.43;100588.50;5095378;27;45559;-75
2022/03/11 04:29:37;;;;;;;;;19.33;14.00;;;;;25.48;24.62;100594.53;5078182;27;45382;-75
2022/03/11 04:32:04;;;;;;;;;14.00;14.00;;;;;25.41;24.47;100597.59;5093317;27;45496;-76
2022/03/11 04:34:29;;;;;;;;;11.67;11.67;;;;;25.49;24.14;100598.13;5095723;27;45810;-75
2022/03/11 04:36:56;;;;;;;;;14.33;13.00;;;;;25.41;24.55;100573.13;5088779;27;45524;-75
2022/03/11 04:39:23;;;;;;;;;10.00;10.00;;;;;25.64;24.61;100597.41;5096321;27;46458;-75
2022/03/11 04:41:49;;;;;;;;;13.33;11.67;;;;;25.64;24.69;100599.22;5096194;27;45575;-75
2022/03/11 04:44:14;;;;;;;;;12.67;10.33;;;;;25.59;24.58;100583.16;5077457;27;46243;-75
2022/03/11 04:46:40;;;;;;;;;13.67;12.67;;;;;25.49;24.32;100599.00;5096184;27;45913;-75
2022/03/11 04:49:05;;;;;;;;;14.33;12.33;;;;;25.42;24.33;100583.06;5099672;27;45779;-75
2022/03/11 04:51:31;;;;;;;;;16.00;13.33;;;;;25.41;24.74;100597.59;5098450;27;45544;-75
2022/03/11 04:53:56;;;;;;;;;12.00;10.67;;;;;25.40;24.82;100596.72;5097013;27;46180;-75
2022/03/11 04:56:21;;;;;;;;;17.00;13.00;;;;;25.37;24.77;100588.69;5074985;28;45488;-75
2022/03/11 04:58:47;;;;;;;;;14.33;12.33;;;;;25.34;24.54;100584.28;5068536;27;45820;-74
2022/03/11 05:01:13;;;;;;;;;13.67;12.67;;;;;25.41;24.81;100589.44;5096513;27;45470;-75
2022/03/11 05:03:38;;;;;;;;;17.00;15.00;;;;;25.39;24.45;100588.63;5096876;27;45454;-74
2022/03/11 05:06:05;;;;;;;;;11.00;11.00;;;;;25.46;24.77;100574.69;5096844;27;45315;-74
2022/03/11 05:08:30;;;;;;;;;11.67;10.67;;;;;25.47;24.80;100581.00;5084001;27;45368;-75
2022/03/11 05:10:55;;;;;;;;;13.00;12.00;;;;;25.41;24.91;100559.56;5088513;27;45513;-74
2022/03/11 05:13:21;;;;;;;;;11.33;10.67;;;;;25.48;24.49;100574.63;5095536;27;46570;-74
2022/03/11 05:15:46;;;;;;;;;17.00;12.67;;;;;25.43;24.14;100566.69;5055618;27;1123171;-74
2022/03/11 05:18:12;;;;;;;;;11.67;9.67;;;;;25.25;24.81;100543.94;5078482;27;45358;-75
2022/03/11 05:20:37;;;;;;;;;15.67;12.67;;;;;25.37;24.83;100568.78;5097181;27;45360;-74
2022/03/11 05:23:03;;;;;;;;;10.33;10.33;;;;;25.41;24.69;100565.00;5075548;28;46866;-74
2022/03/11 05:25:29;;;;;;;;;12.67;11.67;;;;;25.15;25.03;100573.34;5078124;27;45540;-75
2022/03/11 05:27:54;;;;;;;;;21.00;17.00;;;;;25.19;24.88;100560.53;5078416;27;45575;-75
2022/03/11 05:30:20;;;;;;;;;10.33;10.33;;;;;25.20;24.63;100566.81;5096021;27;45480;-75
2022/03/11 05:32:46;;;;;;;;;13.67;13.00;;;;;25.17;25.01;100559.69;5096447;27;46005;-75
2022/03/11 05:35:13;;;;;;;;;12.67;11.33;;;;;25.38;24.88;100559.72;5096327;27;45552;-75
2022/03/11 05:37:39;;;;;;;;;13.33;10.67;;;;;25.37;24.72;100563.38;5096561;27;45503;-75
2022/03/11 05:40:05;;;;;;;;;10.33;10.33;;;;;25.23;24.72;100554.00;5096751;27;45788;-74
2022/03/11 05:42:30;;;;;;;;;13.00;11.00;;;;;25.11;24.76;100559.97;5077618;27;47393;-75
2022/03/11 05:44:56;;;;;;;;;15.33;13.00;;;;;25.15;25.08;100564.31;5096355;27;45367;-74
2022/03/11 05:47:21;;;;;;;;;11.67;10.33;;;;;25.26;25.07;100564.72;5096624;27;45398;-75
2022/03/11 05:49:47;;;;;;;;;9.00;9.00;;;;;25.30;24.43;100558.19;5092687;27;45554;-75
2022/03/11 05:52:12;;;;;;;;;18.00;13.67;;;;;25.08;24.47;100516.69;5097630;27;45407;-85
2022/03/11 05:54:38;;;;;;;;;13.67;13.33;;;;;25.12;24.58;100521.03;5097701;27;45469;-86
2022/03/11 05:57:03;;;;;;;;;12.67;11.33;;;;;24.85;25.14;100496.88;5106022;27;45445;-84
2022/03/11 05:59:32;;;;;;;;;16.67;14.33;;;;;24.94;25.22;100515.47;5112526;27;46574;-85
2022/03/11 06:01:58;;;;;;;;;10.33;10.33;;;;;25.26;24.85;100555.66;5101350;27;46720;-84
2022/03/11 06:04:24;;;;;;;;;13.33;12.67;;;;;25.18;24.80;100556.03;5095472;27;45238;-85
2022/03/11 06:06:49;;;;;;;;;13.67;12.67;;;;;25.13;24.51;100560.78;5097590;27;45314;-84
2022/03/11 06:09:15;;;;;;;;;10.67;10.67;;;;;25.20;25.20;100562.25;5097310;27;45283;-85
2022/03/11 06:11:40;;;;;;;;;9.67;9.00;;;;;25.25;25.01;100552.09;5096742;27;46422;-85
2022/03/11 06:14:06;;;;;;;;;13.00;13.00;;;;;25.00;24.73;100522.44;5090292;27;45201;-85
2022/03/11 06:16:32;;;;;;;;;14.33;13.33;;;;;25.21;24.93;100555.88;5076662;28;45383;-85
2022/03/11 06:18:58;;;;;;;;;12.00;12.00;;;;;24.86;25.03;100498.63;5075565;28;45342;-85
2022/03/11 06:21:23;;;;;;;;;12.67;11.33;;;;;24.75;25.12;100473.81;5069097;28;47982;-85
2022/03/11 06:23:48;;;;;;;;;17.67;15.00;;;;;24.80;24.97;100505.22;5089837;27;45527;-85
2022/03/11 06:26:14;;;;;;;;;14.67;14.67;;;;;24.97;25.02;100536.16;5096662;27;45342;-84
2022/03/11 06:28:39;;;;;;;;;15.33;12.00;;;;;24.90;24.89;100502.97;5095742;27;45423;-85
2022/03/11 06:31:07;;;;;;;;;14.33;14.33;;;;;25.09;25.07;100515.72;5079794;27;46198;-84
2022/03/11 06:33:33;;;;;;;;;12.33;11.67;;;;;25.24;24.73;100547.59;5074915;28;45422;-84
2022/03/11 06:35:58;;;;;;;;;10.00;10.00;;;;;25.22;25.62;100546.81;5076708;28;45427;-84
2022/03/11 06:38:23;;;;;;;;;12.00;12.00;;;;;25.27;24.90;100535.72;5076471;28;45559;-84
2022/03/11 06:40:49;;;;;;;;;9.67;9.67;;;;;24.84;25.44;100481.56;5075952;28;46553;-85
2022/03/11 06:43:16;;;;;;;;;11.00;9.00;;;;;25.30;24.97;100533.75;5084602;27;45509;-84
2022/03/11 06:45:41;;;;;;;;;9.67;9.67;;;;;25.09;24.69;100496.72;5097252;27;45527;-86
2022/03/11 06:48:07;;;;;;;;;11.00;11.00;;;;;25.08;24.68;100487.69;5077996;27;45504;-86
2022/03/11 06:50:32;;;;;;;;;10.00;10.00;;;;;25.04;25.08;100485.22;5096483;27;45513;-84
2022/03/11 06:52:57;;;;;;;;;10.67;10.67;;;;;25.16;25.15;100514.47;5078743;27;45254;-84
2022/03/11 06:55:23;;;;;;;;;11.33;9.33;;;;;25.12;25.19;100467.59;5096509;27;45418;-85
2022/03/11 06:57:48;;;;;;;;;10.67;10.67;;;;;25.45;25.08;100525.88;5096743;27;45357;-84
2022/03/11 07:00:14;;;;;;;;;11.33;11.33;;;;;25.15;24.87;100488.31;5086570;27;45551;-84
2022/03/11 07:02:40;;;;;;;;;9.00;6.00;;;;;25.41;24.83;100533.28;5096466;27;45428;-84
2022/03/11 07:05:06;;;;;;;;;8.00;8.00;;;;;25.55;25.01;100527.19;5063063;28;45389;-85
2022/03/11 07:07:33;;;;;;;;;8.67;8.67;;;;;25.12;25.02;100466.75;5057928;28;45477;-83
2022/03/11 07:10:12;;;;;;;;;17.00;14.00;;;;;25.29;25.02;100488.53;5091517;27;45412;-84
2022/03/11 07:12:38;;;;;;;;;9.67;9.00;;;;;25.24;24.97;100460.72;5095392;27;45162;-84
2022/03/11 07:15:05;;;;;;;;;6.33;6.33;;;;;25.43;24.63;100487.03;5065535;28;45481;-84
2022/03/11 07:17:31;;;;;;;;;9.33;8.33;;;;;25.45;24.58;100477.84;5076244;27;45414;-86
2022/03/11 07:19:57;;;;;;;;;9.00;8.00;;;;;25.47;24.92;100478.69;5057052;28;48321;-84
2022/03/11 07:22:22;;;;;;;;;10.00;10.00;;;;;25.21;24.90;100444.56;5057649;28;45744;-86
2022/03/11 07:24:48;;;;;;;;;6.33;6.00;;;;;25.74;24.43;100521.78;5075640;28;45684;-84
2022/03/11 07:27:13;;;;;;;;;8.00;8.00;;;;;25.78;24.54;100531.56;5076525;27;45508;-84
2022/03/11 07:29:39;;;;;;;;;6.67;6.67;;;;;25.58;24.63;100480.88;5092226;27;48089;-85
2022/03/11 07:32:06;;;;;;;;;9.00;6.00;;;;;25.79;24.51;100516.13;5076999;27;45810;-84
2022/03/11 07:34:31;;;;;;;;;9.33;6.00;;;;;25.45;24.33;100436.25;5075752;28;45380;-84
2022/03/11 07:36:57;;;;;;;;;9.00;7.33;;;;;25.71;24.50;100491.16;5072018;27;45548;-83
2022/03/11 07:39:22;;;;;;;;;9.00;8.00;;;;;25.84;24.51;100482.31;5077648;27;48321;-81
2022/03/11 07:41:49;;;;;;;;;8.00;6.00;;;;;25.55;24.39;100470.16;5089944;27;45417;-90
2022/03/11 07:44:15;;;;;;;;;6.00;6.00;;;;;25.64;24.62;100445.28;5097221;27;45323;-89
2022/03/11 07:46:42;;;;;;;;;5.00;3.67;;;;;25.72;24.38;100452.16;5095130;27;45335;-86
2022/03/11 07:49:07;;;;;;;;;7.33;6.00;;;;;26.15;24.31;100512.59;5077949;27;47530;-86
2022/03/11 07:51:33;;;;;;;;;6.00;5.00;;;;;26.16;24.24;100489.84;5077923;27;45460;-85
2022/03/11 07:53:58;;;;;;;;;6.67;6.33;;;;;25.91;23.84;100455.72;5079195;27;45414;-91
2022/03/11 07:56:24;;;;;;;;;8.00;8.00;;;;;26.02;24.51;100496.88;5080116;27;45231;-89
2022/03/11 07:58:50;;;;;;;;;7.67;5.00;;;;;25.95;23.80;100460.06;5079476;27;48206;-92
2022/03/11 08:01:15;;;;;;;;;7.00;7.00;;;;;26.13;24.22;100498.16;5080096;27;45406;-84
2022/03/11 08:03:43;;;;;;;;;10.67;7.00;;;;;26.30;24.16;100486.44;5089350;27;45228;-87
2022/03/11 08:06:09;;;;;;;;;5.33;5.33;;;;;26.24;23.94;100487.63;5067693;27;45470;-86
2022/03/11 08:08:36;;;;;;;;;7.33;7.00;;;;;26.28;23.76;100485.66;5077692;27;48078;-85
2022/03/11 08:11:03;;;;;;;;;5.00;5.00;;;;;26.01;23.92;100418.13;5081431;27;45491;-88
2022/03/11 08:13:28;;;;;;;;;7.00;7.00;;;;;26.24;24.21;100475.88;5073872;27;45410;-88
2022/03/11 08:15:54;;;;;;;;;8.33;8.00;;;;;25.75;23.87;100368.69;5099522;27;45440;-86
2022/03/11 08:18:20;;;;;;;;;11.00;8.67;;;;;26.39;23.88;100471.50;5099736;27;47166;-89
2022/03/11 08:20:46;;;;;;;;;9.67;9.33;;;;;25.98;23.64;100400.09;5090466;27;45232;-91
2022/03/11 08:23:11;;;;;;;;;7.33;6.00;;;;;25.98;23.77;100410.97;5062627;28;45248;-88
2022/03/11 08:25:37;;;;;;;;;6.00;5.00;;;;;26.40;23.53;100456.94;5079977;28;45283;-89
2022/03/11 08:28:04;;;;;;;;;9.00;8.33;;;;;26.43;23.71;100467.69;5062512;28;47242;-89
2022/03/11 08:30:31;;;;;;;;;6.00;6.00;;;;;26.14;24.07;100410.22;5062320;28;45429;-88
2022/03/11 08:32:57;;;;;;;;;6.33;5.67;;;;;26.05;23.41;100402.53;5072349;28;45504;-90
2022/03/11 08:35:23;;;;;;;;;4.33;4.33;;;;;26.36;24.00;100451.66;5082841;27;45737;-93
2022/03/11 08:37:48;;;;;;;;;9.33;4.33;;;;;26.18;23.52;100407.25;5098809;27;47294;-91
2022/03/11 08:40:14;;;;;;;;;5.00;5.00;;;;;26.52;23.88;100450.84;5081915;27;45551;-89
2022/03/11 08:42:41;;;;;;;;;6.00;5.00;;;;;26.39;23.94;100415.25;5072898;28;45329;-91
2022/03/11 08:45:09;;;;;;;;;4.00;3.00;;;;;26.48;23.60;100432.94;5078862;28;45465;-91
2022/03/11 08:47:34;;;;;;;;;3.33;2.33;;;;;26.50;23.65;100409.28;5077837;27;48352;-93
2022/03/11 08:50:02;;;;;;;;;6.00;5.00;;;;;26.84;23.45;100443.72;5091001;27;45700;-84
2022/03/11 08:52:28;;;;;;;;;4.00;4.00;;;;;26.18;23.65;100325.69;5098766;27;45467;-87
2022/03/11 08:54:54;;;;;;;;;3.00;3.00;;;;;26.69;23.55;100410.06;5065865;27;45429;-85
2022/03/11 08:57:19;;;;;;;;;6.00;4.00;;;;;26.83;23.62;100441.97;5095583;27;47099;-85
2022/03/11 08:59:45;;;;;;;;;5.00;5.00;;;;;26.83;23.48;100438.38;5089667;27;45371;-84
2022/03/11 09:02:10;;;;;;;;;4.00;4.00;;;;;26.69;23.53;100415.53;5102499;27;45404;-85
2022/03/11 09:04:36;;;;;;;;;3.00;3.00;;;;;26.97;23.52;100424.00;5080332;27;45425;-87
2022/03/11 09:07:03;;;;;;;;;2.67;2.67;;;;;27.10;23.15;100430.56;5087729;27;48370;-86
2022/03/11 09:09:29;;;;;;;;;4.67;4.00;;;;;26.91;23.13;100386.25;5079235;27;45350;-86
2022/03/11 09:11:54;;;;;;;;;3.00;3.00;;;;;27.33;23.08;100426.53;5081171;27;45471;-86
2022/03/11 09:14:20;;;;;;;;;4.00;3.67;;;;;27.33;22.91;100431.97;5081544;27;45256;-89
2022/03/11 09:16:45;;;;;;;;;6.33;4.00;;;;;27.45;22.76;100454.06;5079762;27;47099;-89
2022/03/11 09:19:11;;;;;;;;;5.00;4.00;;;;;27.12;22.58;100397.78;5080632;27;45496;-90
2022/03/11 09:21:36;;;;;;;;;3.00;3.00;;;;;26.91;23.00;100346.28;5079220;27;45251;-89
2022/03/11 09:24:02;;;;;;;;;3.00;2.00;;;;;27.32;22.96;100378.47;5105977;27;45423;-90
2022/03/11 09:26:28;;;;;;;;;5.00;3.00;;;;;27.66;22.75;100432.91;5096103;27;48560;-90
2022/03/11 09:28:54;;;;;;;;;2.00;2.00;;;;;27.28;23.02;100363.25;5084038;27;45783;-92
2022/03/11 09:31:20;;;;;;;;;2.33;2.33;;;;;27.49;23.34;100412.94;5076176;27;45485;-85
2022/03/11 09:33:45;;;;;;;;;5.00;2.67;;;;;27.57;22.78;100407.06;5080801;27;45471;-87
2022/03/11 09:36:12;;;;;;;;;4.00;3.00;;;;;27.41;22.79;100355.28;5083588;27;46006;-86
2022/03/11 09:38:37;;;;;;;;;2.00;2.00;;;;;27.84;22.57;100409.16;5079266;27;45880;-89
2022/03/11 09:41:04;;;;;;;;;5.00;3.00;;;;;27.80;22.35;100402.13;5079927;27;45245;-88
2022/03/11 09:43:30;;;;;;;;;2.00;2.00;;;;;27.64;22.94;100386.66;5080942;27;45533;-88
2022/03/11 09:45:57;;;;;;;;;3.00;3.00;;;;;27.48;22.42;100324.03;5088543;27;47987;-88
2022/03/11 09:48:23;;;;;;;;;3.00;3.00;;;;;27.59;22.28;100353.34;5079860;27;45785;-89
2022/03/11 09:50:49;;;;;;;;;4.00;3.00;;;;;27.25;22.34;100311.69;5090273;27;45526;-90
2022/03/11 09:53:15;;;;;;;;;3.00;1.67;;;;;27.56;22.69;100378.91;5094499;27;45366;-91
2022/03/11 09:55:41;;;;;;;;;2.33;2.33;;;;;27.48;22.24;100343.09;5083389;27;46645;-90
2022/03/11 09:58:07;;;;;;;;;4.67;3.33;;;;;27.32;22.56;100315.81;5079879;27;45216;-89
2022/03/11 10:00:33;;;;;;;;;3.00;3.00;;;;;27.76;21.99;100354.19;5080195;27;45372;-89
2022/03/11 10:02:58;;;;;;;;;3.67;3.67;;;;;27.94;22.08;100383.09;5086594;27;45359;-91
2022/03/11 10:05:23;;;;;;;;;3.00;3.00;;;;;28.03;22.34;100371.66;5094480;27;47733;-87
2022/03/11 10:08:05;;;;;;;;;2.00;2.00;;;;;27.90;22.05;100324.25;5086792;27;45631;-87
2022/03/11 10:10:30;;;;;;;;;3.33;2.00;;;;;27.83;21.99;100323.78;5078300;27;45410;-86
2022/03/11 10:12:56;;;;;;;;;2.00;2.00;;;;;28.14;22.18;100371.00;5079267;27;45322;-86
2022/03/11 10:15:27;;;;;;;;;4.00;3.00;;;;;28.46;21.97;100394.56;5083832;27;47216;-87
2022/03/11 10:17:54;;;;;;;;;4.50;3.00;;;;;28.31;21.86;100389.09;5079130;27;45428;-88
2022/03/11 10:20:19;;;;;;;;;1.00;1.00;;;;;27.83;22.38;100293.78;5077789;27;45397;-85
2022/03/11 10:22:45;;;;;;;;;3.00;3.00;;;;;27.78;22.35;100295.00;5076196;27;45236;-89
2022/03/11 10:25:17;;;;;;;;;4.00;3.00;;;;;28.39;22.94;100373.09;5074814;27;47298;-89
2022/03/11 10:27:55;;;;;;;;;2.67;2.67;;;;;28.45;22.42;100355.47;5082528;27;45499;-84
2022/03/11 10:30:21;;;;;;;;;4.00;4.00;;;;;28.34;22.54;100296.16;5090003;27;45384;-89
2022/03/11 10:32:50;;;;;;;;;5.00;3.00;;;;;28.74;22.41;100353.69;5080099;27;45591;-82
2022/03/11 10:35:18;;;;;;;;;5.33;4.00;;;;;28.85;22.48;100341.22;5092757;27;46319;-81
2022/03/11 10:38:20;;;;;;;;;3.67;3.00;;;;;28.84;22.31;100315.75;5096211;27;45531;-81
2022/03/11 10:40:53;;;;;;;;;3.00;3.00;;;;;29.13;21.51;100355.78;5032278;28;45524;-89
2022/03/11 10:43:21;;;;;;;;;3.00;3.00;;;;;28.88;21.58;100309.09;5023533;28;45430;-85
2022/03/11 10:45:55;;;;;;;;;5.33;5.33;;;;;29.13;21.98;100363.97;5010716;28;47553;-75
2022/03/11 10:48:44;;;;;;;;;4.33;3.00;;;;;29.03;21.77;100375.53;5003346;28;45558;-81
2022/03/11 10:51:25;;;;;;;;;2.00;2.00;;;;;29.00;21.50;100363.91;5024381;28;45350;-77
2022/03/11 10:53:51;;;;;;;;;1.00;1.00;;;;;28.81;21.46;100356.03;5013838;28;45551;-87
2022/03/11 10:56:35;;;;;;;;;2.00;2.00;;;;;28.35;21.82;100280.63;5015644;28;47516;-92
2022/03/11 10:59:17;;;;;;;;;3.00;3.00;;;;;28.48;21.94;100292.53;5000268;28;45580;-94
2022/03/11 11:01:44;;;;;;;;;2.67;2.00;;;;;29.19;21.23;100380.00;5029993;28;45442;-88
2022/03/11 11:04:11;;;;;;;;;2.00;2.00;;;;;28.57;21.48;100245.53;5011656;28;45444;-90
2022/03/11 11:06:37;;;;;;;;;3.33;2.33;;;;;28.52;21.70;100272.28;5028848;28;48471;-89
2022/03/11 11:09:05;;;;;;;;;4.00;4.00;;;;;28.74;21.59;100334.56;5016468;28;45508;-82
2022/03/11 11:11:35;;;;;;;;;5.00;3.33;;;;;28.78;21.92;100342.59;5024818;28;45400;-91